sensor_id;sensor_type;location;lat;lon;timestamp;temperature;humidity
20345;DHT22;10330;48.816;9.278;2023-04-21T00:01:16;5.90;99.90
20345;DHT22;10330;48.816;9.278;2023-04-21T00:03:42;5.80;99.90
20345;DHT22;10330;48.816;9.278;2023-04-21T00:06:09;5.80;99.90
20345;DHT22;10330;48.816;9.278;2023-04-21T00:08:35;5.70;99.90
20345;DHT22;10330;48.816;9.278;2023-04-21T00:11:06;5.80;99.90
20345;DHT22;10330;48.816;9.278;2023-04-21T00:13:35;5.80;99.90
20345;DHT22;10330;48.816;9.278;2023-04-21T00:16:02;5.70;99.90
20345;DHT22;10330;48.816;9.278;2023-04-21T00:18:29;5.70;99.90
20345;DHT22;10330;48.816;9.278;2023-04-21T00:20:55;5.70;99.90
20345;DHT22;10330;48.816;9.278;2023-04-21T00:23:21;5.70;99.90
20345;DHT22;10330;48.816;9.278;2023-04-21T00:25:48;5.60;99.90
20345;DHT22;10330;48.816;9.278;2023-04-21T00:28:14;5.60;99.90
20345;DHT22;10330;48.816;9.278;2023-04-21T00:30:40;5.60;99.90
20345;DHT22;10330;48.816;9.278;2023-04-21T00:33:07;5.50;99.90
20345;DHT22;10330;48.816;9.278;2023-04-21T00:35:33;5.50;99.90
20345;DHT22;10330;48.816;9.278;2023-04-21T00:38:00;5.50;99.90
20345;DHT22;10330;48.816;9.278;2023-04-21T00:40:26;5.50;99.90
20345;DHT22;10330;48.816;9.278;2023-04-21T00:42:53;5.50;99.90
20345;DHT22;10330;48.816;9.278;2023-04-21T00:45:19;5.50;99.90
20345;DHT22;10330;48.816;9.278;2023-04-21T00:47:45;5.50;99.90
20345;DHT22;10330;48.816;9.278;2023-04-21T00:50:12;5.50;99.90
20345;DHT22;10330;48.816;9.278;2023-04-21T00:52:39;5.50;99.90
20345;DHT22;10330;48.816;9.278;2023-04-21T00:55:07;5.50;99.90
20345;DHT22;10330;48.816;9.278;2023-04-21T00:57:35;5.50;99.90
20345;DHT22;10330;48.816;9.278;2023-04-21T01:00:03;5.50;99.90
20345;DHT22;10330;48.816;9.278;2023-04-21T01:02:32;5.50;99.90
20345;DHT22;10330;48.816;9.278;2023-04-21T01:04:59;5.50;99.90
20345;DHT22;10330;48.816;9.278;2023-04-21T01:07:26;5.50;99.90
20345;DHT22;10330;48.816;9.278;2023-04-21T01:09:53;5.50;99.90
20345;DHT22;10330;48.816;9.278;2023-04-21T01:12:19;5.50;99.90
20345;DHT22;10330;48.816;9.278;2023-04-21T01:14:46;5.50;99.90
20345;DHT22;10330;48.816;9.278;2023-04-21T01:17:12;5.50;99.90
20345;DHT22;10330;48.816;9.278;2023-04-21T01:19:40;5.50;99.90
20345;DHT22;10330;48.816;9.278;2023-04-21T01:22:11;5.50;99.90
20345;DHT22;10330;48.816;9.278;2023-04-21T01:24:40;5.40;99.90
20345;DHT22;10330;48.816;9.278;2023-04-21T01:27:11;5.40;99.90
20345;DHT22;10330;48.816;9.278;2023-04-21T01:29:40;5.30;99.90
20345;DHT22;10330;48.816;9.278;2023-04-21T01:32:10;5.30;99.90
20345;DHT22;10330;48.816;9.278;2023-04-21T01:34:37;5.30;99.90
20345;DHT22;10330;48.816;9.278;2023-04-21T01:37:07;5.20;99.90
20345;DHT22;10330;48.816;9.278;2023-04-21T01:39:40;5.20;99.90
20345;DHT22;10330;48.816;9.278;2023-04-21T01:42:07;5.10;99.90
20345;DHT22;10330;48.816;9.278;2023-04-21T01:44:35;5.10;99.90
20345;DHT22;10330;48.816;9.278;2023-04-21T01:47:01;5.10;99.90
20345;DHT22;10330;48.816;9.278;2023-04-21T01:49:28;5.00;99.90
20345;DHT22;10330;48.816;9.278;2023-04-21T01:51:54;5.00;99.90
20345;DHT22;10330;48.816;9.278;2023-04-21T01:54:20;5.00;99.90
20345;DHT22;10330;48.816;9.278;2023-04-21T01:56:46;5.00;99.90
20345;DHT22;10330;48.816;9.278;2023-04-21T01:59:14;5.00;99.90
20345;DHT22;10330;48.816;9.278;2023-04-21T02:01:40;5.00;99.90
20345;DHT22;10330;48.816;9.278;2023-04-21T02:04:06;5.00;99.90
20345;DHT22;10330;48.816;9.278;2023-04-21T02:06:33;5.00;99.90
20345;DHT22;10330;48.816;9.278;2023-04-21T02:08:59;4.90;99.90
20345;DHT22;10330;48.816;9.278;2023-04-21T02:11:27;5.00;99.90
20345;DHT22;10330;48.816;9.278;2023-04-21T02:13:54;4.90;99.90
20345;DHT22;10330;48.816;9.278;2023-04-21T02:16:22;4.90;99.90
20345;DHT22;10330;48.816;9.278;2023-04-21T02:18:55;5.00;99.90
20345;DHT22;10330;48.816;9.278;2023-04-21T02:21:32;5.00;99.90
20345;DHT22;10330;48.816;9.278;2023-04-21T02:23:58;5.00;99.90
20345;DHT22;10330;48.816;9.278;2023-04-21T02:26:25;5.00;99.90
20345;DHT22;10330;48.816;9.278;2023-04-21T02:28:52;5.10;99.90
20345;DHT22;10330;48.816;9.278;2023-04-21T02:31:19;5.00;99.90
20345;DHT22;10330;48.816;9.278;2023-04-21T02:33:45;5.10;99.90
20345;DHT22;10330;48.816;9.278;2023-04-21T02:36:11;5.10;99.90
20345;DHT22;10330;48.816;9.278;2023-04-21T02:38:37;5.10;99.90
20345;DHT22;10330;48.816;9.278;2023-04-21T02:41:03;5.10;99.90
20345;DHT22;10330;48.816;9.278;2023-04-21T02:43:30;5.00;99.90
20345;DHT22;10330;48.816;9.278;2023-04-21T02:45:56;4.90;99.90
20345;DHT22;10330;48.816;9.278;2023-04-21T02:48:22;5.00;99.90
20345;DHT22;10330;48.816;9.278;2023-04-21T02:50:51;4.90;99.90
20345;DHT22;10330;48.816;9.278;2023-04-21T02:53:19;4.90;99.90
20345;DHT22;10330;48.816;9.278;2023-04-21T02:55:45;4.90;99.90
20345;DHT22;10330;48.816;9.278;2023-04-21T02:58:12;4.90;99.90
20345;DHT22;10330;48.816;9.278;2023-04-21T03:00:38;4.90;99.90
20345;DHT22;10330;48.816;9.278;2023-04-21T03:03:04;4.80;99.90
20345;DHT22;10330;48.816;9.278;2023-04-21T03:05:31;4.80;99.90
20345;DHT22;10330;48.816;9.278;2023-04-21T03:07:58;4.80;99.90
20345;DHT22;10330;48.816;9.278;2023-04-21T03:10:24;4.70;99.90
20345;DHT22;10330;48.816;9.278;2023-04-21T03:12:51;4.80;99.90
20345;DHT22;10330;48.816;9.278;2023-04-21T03:15:17;4.70;99.90
20345;DHT22;10330;48.816;9.278;2023-04-21T03:17:44;4.70;99.90
20345;DHT22;10330;48.816;9.278;2023-04-21T03:20:10;4.80;99.90
20345;DHT22;10330;48.816;9.278;2023-04-21T03:22:38;4.70;99.90
20345;DHT22;10330;48.816;9.278;2023-04-21T03:25:04;4.70;99.90
20345;DHT22;10330;48.816;9.278;2023-04-21T03:27:33;4.70;99.90
20345;DHT22;10330;48.816;9.278;2023-04-21T03:30:00;4.80;99.90
20345;DHT22;10330;48.816;9.278;2023-04-21T03:32:26;4.70;99.90
20345;DHT22;10330;48.816;9.278;2023-04-21T03:34:53;4.80;99.90
20345;DHT22;10330;48.816;9.278;2023-04-21T03:37:19;4.70;99.90
20345;DHT22;10330;48.816;9.278;2023-04-21T03:39:45;4.70;99.90
20345;DHT22;10330;48.816;9.278;2023-04-21T03:42:12;4.70;99.90
20345;DHT22;10330;48.816;9.278;2023-04-21T03:44:39;4.60;99.90
20345;DHT22;10330;48.816;9.278;2023-04-21T03:47:05;4.60;99.90
20345;DHT22;10330;48.816;9.278;2023-04-21T03:49:34;4.60;99.90
20345;DHT22;10330;48.816;9.278;2023-04-21T03:52:01;4.60;99.90
20345;DHT22;10330;48.816;9.278;2023-04-21T03:54:27;4.60;99.90
20345;DHT22;10330;48.816;9.278;2023-04-21T03:56:53;4.60;99.90
20345;DHT22;10330;48.816;9.278;2023-04-21T03:59:20;4.60;99.90
20345;DHT22;10330;48.816;9.278;2023-04-21T04:01:46;4.50;99.90
20345;DHT22;10330;48.816;9.278;2023-04-21T04:04:12;4.50;99.90
20345;DHT22;10330;48.816;9.278;2023-04-21T04:06:38;4.40;99.90
20345;DHT22;10330;48.816;9.278;2023-04-21T04:09:14;4.40;99.90
20345;DHT22;10330;48.816;9.278;2023-04-21T04:11:40;4.40;99.90
20345;DHT22;10330;48.816;9.278;2023-04-21T04:14:06;4.40;99.90
20345;DHT22;10330;48.816;9.278;2023-04-21T04:16:34;4.40;99.90
20345;DHT22;10330;48.816;9.278;2023-04-21T04:19:00;4.40;99.90
20345;DHT22;10330;48.816;9.278;2023-04-21T04:21:27;4.40;99.90
20345;DHT22;10330;48.816;9.278;2023-04-21T04:23:53;4.40;99.90
20345;DHT22;10330;48.816;9.278;2023-04-21T04:26:20;4.40;99.90
20345;DHT22;10330;48.816;9.278;2023-04-21T04:28:50;4.40;99.90
20345;DHT22;10330;48.816;9.278;2023-04-21T04:31:51;4.40;99.90
20345;DHT22;10330;48.816;9.278;2023-04-21T04:34:18;4.40;99.90
20345;DHT22;10330;48.816;9.278;2023-04-21T04:36:45;4.40;99.90
20345;DHT22;10330;48.816;9.278;2023-04-21T04:39:12;4.40;99.90
20345;DHT22;10330;48.816;9.278;2023-04-21T04:41:39;4.40;99.90
20345;DHT22;10330;48.816;9.278;2023-04-21T04:44:06;4.50;99.90
20345;DHT22;10330;48.816;9.278;2023-04-21T04:46:32;4.50;99.90
20345;DHT22;10330;48.816;9.278;2023-04-21T04:49:00;4.60;99.90
20345;DHT22;10330;48.816;9.278;2023-04-21T04:51:26;4.60;99.90
20345;DHT22;10330;48.816;9.278;2023-04-21T04:53:52;4.60;99.90
20345;DHT22;10330;48.816;9.278;2023-04-21T04:56:19;4.70;99.90
20345;DHT22;10330;48.816;9.278;2023-04-21T04:58:45;4.70;99.90
20345;DHT22;10330;48.816;9.278;2023-04-21T05:01:13;4.70;99.90
20345;DHT22;10330;48.816;9.278;2023-04-21T05:03:39;4.80;99.90
20345;DHT22;10330;48.816;9.278;2023-04-21T05:06:05;4.80;99.90
20345;DHT22;10330;48.816;9.278;2023-04-21T05:08:32;4.80;99.90
20345;DHT22;10330;48.816;9.278;2023-04-21T05:10:58;4.80;99.90
20345;DHT22;10330;48.816;9.278;2023-04-21T05:13:24;4.80;99.90
20345;DHT22;10330;48.816;9.278;2023-04-21T05:16:02;4.80;99.90
20345;DHT22;10330;48.816;9.278;2023-04-21T05:18:28;4.90;99.90
20345;DHT22;10330;48.816;9.278;2023-04-21T05:20:55;4.90;99.90
20345;DHT22;10330;48.816;9.278;2023-04-21T05:23:21;4.90;99.90
20345;DHT22;10330;48.816;9.278;2023-04-21T05:25:48;4.90;99.90
20345;DHT22;10330;48.816;9.278;2023-04-21T05:28:14;4.90;99.90
20345;DHT22;10330;48.816;9.278;2023-04-21T05:30:41;5.00;99.90
20345;DHT22;10330;48.816;9.278;2023-04-21T05:33:08;5.00;99.90
20345;DHT22;10330;48.816;9.278;2023-04-21T05:35:35;5.00;99.90
20345;DHT22;10330;48.816;9.278;2023-04-21T05:38:02;5.00;99.90
20345;DHT22;10330;48.816;9.278;2023-04-21T05:40:28;5.00;99.90
20345;DHT22;10330;48.816;9.278;2023-04-21T05:43:00;5.00;99.90
20345;DHT22;10330;48.816;9.278;2023-04-21T05:45:28;5.00;99.90
20345;DHT22;10330;48.816;9.278;2023-04-21T05:47:54;5.00;99.90
20345;DHT22;10330;48.816;9.278;2023-04-21T05:50:20;5.10;99.90
20345;DHT22;10330;48.816;9.278;2023-04-21T05:52:46;5.10;99.90
20345;DHT22;10330;48.816;9.278;2023-04-21T05:55:28;5.20;99.90
20345;DHT22;10330;48.816;9.278;2023-04-21T05:57:58;5.20;99.90
20345;DHT22;10330;48.816;9.278;2023-04-21T06:00:25;5.30;99.90
20345;DHT22;10330;48.816;9.278;2023-04-21T06:02:51;5.30;99.90
20345;DHT22;10330;48.816;9.278;2023-04-21T06:05:18;5.40;99.90
20345;DHT22;10330;48.816;9.278;2023-04-21T06:07:44;5.50;99.90
20345;DHT22;10330;48.816;9.278;2023-04-21T06:10:11;5.60;99.90
20345;DHT22;10330;48.816;9.278;2023-04-21T06:12:38;5.50;99.90
20345;DHT22;10330;48.816;9.278;2023-04-21T06:15:09;5.50;99.90
20345;DHT22;10330;48.816;9.278;2023-04-21T06:17:44;5.50;99.90
20345;DHT22;10330;48.816;9.278;2023-04-21T06:20:10;5.70;99.90
20345;DHT22;10330;48.816;9.278;2023-04-21T06:22:37;5.80;99.90
20345;DHT22;10330;48.816;9.278;2023-04-21T06:25:03;5.90;99.90
20345;DHT22;10330;48.816;9.278;2023-04-21T06:27:30;5.90;99.90
20345;DHT22;10330;48.816;9.278;2023-04-21T06:29:56;6.00;99.90
20345;DHT22;10330;48.816;9.278;2023-04-21T06:32:23;6.10;99.90
20345;DHT22;10330;48.816;9.278;2023-04-21T06:34:49;6.20;99.90
20345;DHT22;10330;48.816;9.278;2023-04-21T06:37:17;6.30;99.90
20345;DHT22;10330;48.816;9.278;2023-04-21T06:39:46;6.20;99.90
20345;DHT22;10330;48.816;9.278;2023-04-21T06:42:13;6.20;99.90
20345;DHT22;10330;48.816;9.278;2023-04-21T06:44:42;6.20;99.90
20345;DHT22;10330;48.816;9.278;2023-04-21T06:47:08;6.30;99.90
20345;DHT22;10330;48.816;9.278;2023-04-21T06:49:34;6.60;99.90
20345;DHT22;10330;48.816;9.278;2023-04-21T06:52:03;6.80;99.90
20345;DHT22;10330;48.816;9.278;2023-04-21T06:54:29;6.90;99.90
20345;DHT22;10330;48.816;9.278;2023-04-21T06:56:55;7.00;99.90
20345;DHT22;10330;48.816;9.278;2023-04-21T06:59:22;7.10;99.90
20345;DHT22;10330;48.816;9.278;2023-04-21T07:01:48;7.30;99.90
20345;DHT22;10330;48.816;9.278;2023-04-21T07:04:17;7.30;99.90
20345;DHT22;10330;48.816;9.278;2023-04-21T07:06:44;7.30;99.90
20345;DHT22;10330;48.816;9.278;2023-04-21T07:09:10;7.40;99.90
20345;DHT22;10330;48.816;9.278;2023-04-21T07:11:37;7.40;99.90
20345;DHT22;10330;48.816;9.278;2023-04-21T07:14:05;7.50;99.90
20345;DHT22;10330;48.816;9.278;2023-04-21T07:16:31;7.50;99.90
20345;DHT22;10330;48.816;9.278;2023-04-21T07:18:58;7.50;99.90
20345;DHT22;10330;48.816;9.278;2023-04-21T07:21:24;7.60;99.90
20345;DHT22;10330;48.816;9.278;2023-04-21T07:23:50;7.60;99.90
20345;DHT22;10330;48.816;9.278;2023-04-21T07:26:16;7.70;99.90
20345;DHT22;10330;48.816;9.278;2023-04-21T07:28:43;7.70;99.90
20345;DHT22;10330;48.816;9.278;2023-04-21T07:31:09;7.80;99.90
20345;DHT22;10330;48.816;9.278;2023-04-21T07:33:35;7.90;99.90
20345;DHT22;10330;48.816;9.278;2023-04-21T07:36:02;8.00;99.90
20345;DHT22;10330;48.816;9.278;2023-04-21T07:38:28;8.20;99.90
20345;DHT22;10330;48.816;9.278;2023-04-21T07:40:54;8.20;99.90
20345;DHT22;10330;48.816;9.278;2023-04-21T07:43:20;8.30;99.90
20345;DHT22;10330;48.816;9.278;2023-04-21T07:45:47;8.40;99.90
20345;DHT22;10330;48.816;9.278;2023-04-21T07:48:13;8.50;99.90
20345;DHT22;10330;48.816;9.278;2023-04-21T07:50:39;8.50;99.90
20345;DHT22;10330;48.816;9.278;2023-04-21T07:53:06;8.60;99.90
20345;DHT22;10330;48.816;9.278;2023-04-21T07:55:32;8.70;99.90
20345;DHT22;10330;48.816;9.278;2023-04-21T07:57:59;8.80;99.90
20345;DHT22;10330;48.816;9.278;2023-04-21T08:00:25;8.90;99.90
20345;DHT22;10330;48.816;9.278;2023-04-21T08:02:52;9.00;99.90
20345;DHT22;10330;48.816;9.278;2023-04-21T08:05:19;9.00;99.90
20345;DHT22;10330;48.816;9.278;2023-04-21T08:07:45;9.00;99.90
20345;DHT22;10330;48.816;9.278;2023-04-21T08:10:11;8.90;99.90
20345;DHT22;10330;48.816;9.278;2023-04-21T08:12:37;8.90;99.90
20345;DHT22;10330;48.816;9.278;2023-04-21T08:15:04;9.00;99.90
20345;DHT22;10330;48.816;9.278;2023-04-21T08:17:33;9.00;99.90
20345;DHT22;10330;48.816;9.278;2023-04-21T08:20:00;8.90;99.90
20345;DHT22;10330;48.816;9.278;2023-04-21T08:22:26;9.00;99.90
20345;DHT22;10330;48.816;9.278;2023-04-21T08:24:52;9.10;99.90
20345;DHT22;10330;48.816;9.278;2023-04-21T08:27:19;9.10;99.90
20345;DHT22;10330;48.816;9.278;2023-04-21T08:29:49;9.10;99.90
20345;DHT22;10330;48.816;9.278;2023-04-21T08:32:15;9.10;99.90
20345;DHT22;10330;48.816;9.278;2023-04-21T08:34:49;9.10;99.90
20345;DHT22;10330;48.816;9.278;2023-04-21T08:37:17;9.10;99.90
20345;DHT22;10330;48.816;9.278;2023-04-21T08:39:44;9.20;99.90
20345;DHT22;10330;48.816;9.278;2023-04-21T08:42:18;9.30;99.90
20345;DHT22;10330;48.816;9.278;2023-04-21T08:44:45;9.40;99.90
20345;DHT22;10330;48.816;9.278;2023-04-21T08:47:13;9.30;99.90
20345;DHT22;10330;48.816;9.278;2023-04-21T08:49:41;9.40;99.90
20345;DHT22;10330;48.816;9.278;2023-04-21T08:52:11;9.50;99.90
20345;DHT22;10330;48.816;9.278;2023-04-21T08:54:39;9.60;99.90
20345;DHT22;10330;48.816;9.278;2023-04-21T08:57:06;9.70;99.90
20345;DHT22;10330;48.816;9.278;2023-04-21T08:59:32;9.80;99.90
20345;DHT22;10330;48.816;9.278;2023-04-21T09:02:06;9.90;99.90
20345;DHT22;10330;48.816;9.278;2023-04-21T09:04:33;10.10;99.90
20345;DHT22;10330;48.816;9.278;2023-04-21T09:07:00;10.30;99.90
20345;DHT22;10330;48.816;9.278;2023-04-21T09:09:26;10.50;99.90
20345;DHT22;10330;48.816;9.278;2023-04-21T09:11:56;10.60;99.90
20345;DHT22;10330;48.816;9.278;2023-04-21T09:14:33;10.70;99.90
20345;DHT22;10330;48.816;9.278;2023-04-21T09:17:01;10.70;99.90
20345;DHT22;10330;48.816;9.278;2023-04-21T09:19:29;10.80;99.90
20345;DHT22;10330;48.816;9.278;2023-04-21T09:21:59;10.90;99.90
20345;DHT22;10330;48.816;9.278;2023-04-21T09:24:26;11.00;99.90
20345;DHT22;10330;48.816;9.278;2023-04-21T09:26:53;11.00;99.90
20345;DHT22;10330;48.816;9.278;2023-04-21T09:29:23;11.10;99.90
20345;DHT22;10330;48.816;9.278;2023-04-21T09:31:56;11.10;99.90
20345;DHT22;10330;48.816;9.278;2023-04-21T09:34:24;11.20;99.90
20345;DHT22;10330;48.816;9.278;2023-04-21T09:37:01;11.30;99.90
20345;DHT22;10330;48.816;9.278;2023-04-21T09:39:36;11.40;99.90
20345;DHT22;10330;48.816;9.278;2023-04-21T09:42:11;11.50;99.90
20345;DHT22;10330;48.816;9.278;2023-04-21T09:44:38;11.60;99.90
20345;DHT22;10330;48.816;9.278;2023-04-21T09:47:04;11.70;99.90
20345;DHT22;10330;48.816;9.278;2023-04-21T09:49:35;11.80;99.90
20345;DHT22;10330;48.816;9.278;2023-04-21T09:52:02;11.90;99.90
20345;DHT22;10330;48.816;9.278;2023-04-21T09:54:31;11.90;99.90
20345;DHT22;10330;48.816;9.278;2023-04-21T09:56:59;12.00;99.90
20345;DHT22;10330;48.816;9.278;2023-04-21T09:59:44;12.00;99.90
20345;DHT22;10330;48.816;9.278;2023-04-21T10:02:11;12.10;99.90
20345;DHT22;10330;48.816;9.278;2023-04-21T10:04:40;12.10;99.90
20345;DHT22;10330;48.816;9.278;2023-04-21T10:07:08;12.20;99.90
20345;DHT22;10330;48.816;9.278;2023-04-21T10:13:00;12.50;99.90
20345;DHT22;10330;48.816;9.278;2023-04-21T10:15:29;12.70;99.90
20345;DHT22;10330;48.816;9.278;2023-04-21T10:23:48;12.90;99.90
20345;DHT22;10330;48.816;9.278;2023-04-21T10:26:25;12.90;99.90
20345;DHT22;10330;48.816;9.278;2023-04-21T10:34:18;13.00;99.90
20345;DHT22;10330;48.816;9.278;2023-04-21T10:47:29;13.80;99.90
20345;DHT22;10330;48.816;9.278;2023-04-21T10:52:38;14.10;99.90
20345;DHT22;10330;48.816;9.278;2023-04-21T10:55:07;14.30;99.90
20345;DHT22;10330;48.816;9.278;2023-04-21T10:57:35;14.40;99.90
20345;DHT22;10330;48.816;9.278;2023-04-21T11:00:02;14.60;99.90
20345;DHT22;10330;48.816;9.278;2023-04-21T11:02:32;14.80;99.90
20345;DHT22;10330;48.816;9.278;2023-04-21T11:05:00;14.80;99.90
20345;DHT22;10330;48.816;9.278;2023-04-21T11:07:27;14.90;99.90
20345;DHT22;10330;48.816;9.278;2023-04-21T11:10:02;15.00;99.90
20345;DHT22;10330;48.816;9.278;2023-04-21T11:12:35;15.30;99.90
20345;DHT22;10330;48.816;9.278;2023-04-21T11:15:04;15.60;99.90
20345;DHT22;10330;48.816;9.278;2023-04-21T11:17:33;15.80;99.90
20345;DHT22;10330;48.816;9.278;2023-04-21T11:20:01;16.00;99.90
20345;DHT22;10330;48.816;9.278;2023-04-21T11:22:29;16.30;99.90
20345;DHT22;10330;48.816;9.278;2023-04-21T11:24:56;16.40;99.90
20345;DHT22;10330;48.816;9.278;2023-04-21T11:27:26;16.60;99.90
20345;DHT22;10330;48.816;9.278;2023-04-21T11:29:53;16.90;99.90
20345;DHT22;10330;48.816;9.278;2023-04-21T11:32:23;17.30;99.90
20345;DHT22;10330;48.816;9.278;2023-04-21T11:34:50;17.50;99.90
20345;DHT22;10330;48.816;9.278;2023-04-21T11:37:23;17.70;99.90
20345;DHT22;10330;48.816;9.278;2023-04-21T11:39:56;18.10;99.90
20345;DHT22;10330;48.816;9.278;2023-04-21T11:42:24;18.40;99.90
20345;DHT22;10330;48.816;9.278;2023-04-21T11:44:53;18.70;99.90
20345;DHT22;10330;48.816;9.278;2023-04-21T11:47:22;19.00;99.90
20345;DHT22;10330;48.816;9.278;2023-04-21T11:49:56;19.20;99.90
20345;DHT22;10330;48.816;9.278;2023-04-21T11:52:27;19.40;99.90
20345;DHT22;10330;48.816;9.278;2023-04-21T11:55:02;19.80;99.90
20345;DHT22;10330;48.816;9.278;2023-04-21T11:57:30;20.20;99.90
20345;DHT22;10330;48.816;9.278;2023-04-21T11:59:58;20.40;99.90
20345;DHT22;10330;48.816;9.278;2023-04-21T12:02:28;20.90;99.90
20345;DHT22;10330;48.816;9.278;2023-04-21T12:05:02;21.50;99.90
20345;DHT22;10330;48.816;9.278;2023-04-21T12:07:54;22.10;99.90
20345;DHT22;10330;48.816;9.278;2023-04-21T12:10:19;22.30;99.90
20345;DHT22;10330;48.816;9.278;2023-04-21T12:12:46;22.70;99.90
20345;DHT22;10330;48.816;9.278;2023-04-21T12:15:20;22.90;99.90
20345;DHT22;10330;48.816;9.278;2023-04-21T12:17:49;23.20;99.90
20345;DHT22;10330;48.816;9.278;2023-04-21T12:20:21;23.40;99.90
20345;DHT22;10330;48.816;9.278;2023-04-21T12:22:48;23.40;99.90
20345;DHT22;10330;48.816;9.278;2023-04-21T12:25:14;23.70;99.90
20345;DHT22;10330;48.816;9.278;2023-04-21T12:27:53;23.70;99.90
20345;DHT22;10330;48.816;9.278;2023-04-21T12:30:22;23.90;99.90
20345;DHT22;10330;48.816;9.278;2023-04-21T12:32:48;24.10;99.90
20345;DHT22;10330;48.816;9.278;2023-04-21T12:35:48;24.40;99.90
20345;DHT22;10330;48.816;9.278;2023-04-21T12:38:15;24.50;99.90
20345;DHT22;10330;48.816;9.278;2023-04-21T12:40:41;24.60;99.90
20345;DHT22;10330;48.816;9.278;2023-04-21T12:43:07;24.70;99.90
20345;DHT22;10330;48.816;9.278;2023-04-21T12:45:34;25.00;99.90
20345;DHT22;10330;48.816;9.278;2023-04-21T12:48:00;24.90;99.90
20345;DHT22;10330;48.816;9.278;2023-04-21T12:50:28;25.00;99.90
20345;DHT22;10330;48.816;9.278;2023-04-21T12:52:54;25.10;99.90
20345;DHT22;10330;48.816;9.278;2023-04-21T12:55:21;25.30;99.90
20345;DHT22;10330;48.816;9.278;2023-04-21T12:57:48;25.60;99.90
20345;DHT22;10330;48.816;9.278;2023-04-21T13:00:15;25.90;99.90
20345;DHT22;10330;48.816;9.278;2023-04-21T13:02:42;26.10;99.90
20345;DHT22;10330;48.816;9.278;2023-04-21T13:05:08;26.00;99.90
20345;DHT22;10330;48.816;9.278;2023-04-21T13:07:36;25.90;99.90
20345;DHT22;10330;48.816;9.278;2023-04-21T13:10:04;26.00;99.90
20345;DHT22;10330;48.816;9.278;2023-04-21T13:12:32;26.10;99.90
20345;DHT22;10330;48.816;9.278;2023-04-21T13:14:58;26.30;99.90
20345;DHT22;10330;48.816;9.278;2023-04-21T13:17:24;26.60;99.90
20345;DHT22;10330;48.816;9.278;2023-04-21T13:19:50;26.60;99.90
20345;DHT22;10330;48.816;9.278;2023-04-21T13:22:16;26.70;99.90
20345;DHT22;10330;48.816;9.278;2023-04-21T13:24:43;26.90;99.90
20345;DHT22;10330;48.816;9.278;2023-04-21T13:27:09;27.10;99.90
20345;DHT22;10330;48.816;9.278;2023-04-21T13:29:35;26.80;99.90
20345;DHT22;10330;48.816;9.278;2023-04-21T13:32:03;26.60;99.90
20345;DHT22;10330;48.816;9.278;2023-04-21T13:34:31;27.00;99.90
20345;DHT22;10330;48.816;9.278;2023-04-21T13:36:59;27.10;99.90
20345;DHT22;10330;48.816;9.278;2023-04-21T13:39:25;27.30;99.90
20345;DHT22;10330;48.816;9.278;2023-04-21T13:41:52;27.20;98.70
20345;DHT22;10330;48.816;9.278;2023-04-21T13:44:19;27.20;99.80
20345;DHT22;10330;48.816;9.278;2023-04-21T13:46:48;26.90;98.40
20345;DHT22;10330;48.816;9.278;2023-04-21T13:49:16;27.10;99.90
20345;DHT22;10330;48.816;9.278;2023-04-21T13:51:43;27.30;99.90
20345;DHT22;10330;48.816;9.278;2023-04-21T13:54:09;27.50;99.90
20345;DHT22;10330;48.816;9.278;2023-04-21T13:56:35;27.70;99.90
20345;DHT22;10330;48.816;9.278;2023-04-21T13:59:02;27.70;98.30
20345;DHT22;10330;48.816;9.278;2023-04-21T14:01:29;27.70;97.40
20345;DHT22;10330;48.816;9.278;2023-04-21T14:03:55;27.60;95.60
20345;DHT22;10330;48.816;9.278;2023-04-21T14:06:22;27.30;95.10
20345;DHT22;10330;48.816;9.278;2023-04-21T14:08:48;27.00;95.20
20345;DHT22;10330;48.816;9.278;2023-04-21T14:11:14;26.80;97.20
20345;DHT22;10330;48.816;9.278;2023-04-21T14:13:40;27.00;98.30
20345;DHT22;10330;48.816;9.278;2023-04-21T14:16:07;27.20;97.20
20345;DHT22;10330;48.816;9.278;2023-04-21T14:18:36;27.30;97.70
20345;DHT22;10330;48.816;9.278;2023-04-21T14:21:05;27.40;97.30
20345;DHT22;10330;48.816;9.278;2023-04-21T14:23:32;27.50;97.70
20345;DHT22;10330;48.816;9.278;2023-04-21T14:25:58;26.90;96.80
20345;DHT22;10330;48.816;9.278;2023-04-21T14:28:24;26.80;96.50
20345;DHT22;10330;48.816;9.278;2023-04-21T14:30:50;26.70;96.30
20345;DHT22;10330;48.816;9.278;2023-04-21T14:33:17;26.60;97.30
20345;DHT22;10330;48.816;9.278;2023-04-21T14:35:43;26.70;96.70
20345;DHT22;10330;48.816;9.278;2023-04-21T14:38:10;27.10;99.30
20345;DHT22;10330;48.816;9.278;2023-04-21T14:40:36;27.40;97.00
20345;DHT22;10330;48.816;9.278;2023-04-21T14:43:02;27.50;96.00
20345;DHT22;10330;48.816;9.278;2023-04-21T14:45:28;27.70;95.80
20345;DHT22;10330;48.816;9.278;2023-04-21T14:47:55;27.80;96.40
20345;DHT22;10330;48.816;9.278;2023-04-21T14:50:21;28.10;98.20
20345;DHT22;10330;48.816;9.278;2023-04-21T14:52:48;28.30;96.70
20345;DHT22;10330;48.816;9.278;2023-04-21T14:55:15;29.00;94.50
20345;DHT22;10330;48.816;9.278;2023-04-21T14:57:42;29.60;92.80
20345;DHT22;10330;48.816;9.278;2023-04-21T15:00:08;30.10;91.90
20345;DHT22;10330;48.816;9.278;2023-04-21T15:02:35;30.70;92.20
20345;DHT22;10330;48.816;9.278;2023-04-21T15:05:01;31.00;90.40
20345;DHT22;10330;48.816;9.278;2023-04-21T15:07:28;31.30;88.50
20345;DHT22;10330;48.816;9.278;2023-04-21T15:09:54;31.60;93.70
20345;DHT22;10330;48.816;9.278;2023-04-21T15:12:20;31.50;91.60
20345;DHT22;10330;48.816;9.278;2023-04-21T15:14:46;31.40;86.10
20345;DHT22;10330;48.816;9.278;2023-04-21T15:17:21;31.20;87.80
20345;DHT22;10330;48.816;9.278;2023-04-21T15:19:47;31.10;88.60
20345;DHT22;10330;48.816;9.278;2023-04-21T15:22:13;31.20;89.20
20345;DHT22;10330;48.816;9.278;2023-04-21T15:24:40;31.10;88.10
20345;DHT22;10330;48.816;9.278;2023-04-21T15:27:07;31.40;87.90
20345;DHT22;10330;48.816;9.278;2023-04-21T15:29:34;30.70;87.10
20345;DHT22;10330;48.816;9.278;2023-04-21T15:32:01;29.30;90.20
20345;DHT22;10330;48.816;9.278;2023-04-21T15:34:27;28.60;91.40
20345;DHT22;10330;48.816;9.278;2023-04-21T15:36:54;28.10;89.90
20345;DHT22;10330;48.816;9.278;2023-04-21T15:39:20;27.30;90.60
20345;DHT22;10330;48.816;9.278;2023-04-21T15:41:46;26.70;91.20
20345;DHT22;10330;48.816;9.278;2023-04-21T15:44:13;27.10;91.10
20345;DHT22;10330;48.816;9.278;2023-04-21T15:46:39;27.70;89.40
20345;DHT22;10330;48.816;9.278;2023-04-21T15:49:06;27.70;89.40
20345;DHT22;10330;48.816;9.278;2023-04-21T15:51:33;28.20;89.80
20345;DHT22;10330;48.816;9.278;2023-04-21T15:54:00;29.00;89.10
20345;DHT22;10330;48.816;9.278;2023-04-21T15:56:26;29.70;87.40
20345;DHT22;10330;48.816;9.278;2023-04-21T15:58:52;30.10;87.00
20345;DHT22;10330;48.816;9.278;2023-04-21T16:01:19;30.40;86.80
20345;DHT22;10330;48.816;9.278;2023-04-21T16:03:47;30.00;89.30
20345;DHT22;10330;48.816;9.278;2023-04-21T16:06:14;29.40;89.50
20345;DHT22;10330;48.816;9.278;2023-04-21T16:08:41;28.70;89.60
20345;DHT22;10330;48.816;9.278;2023-04-21T16:11:08;28.10;90.40